sensor_id;sensor_type;location;lat;lon;timestamp;temperature;humidity
20422;DHT22;10370;53.102;18.034;2022-07-19T00:05:14;18.00;99.90
20422;DHT22;10370;53.102;18.034;2022-07-19T00:10:36;18.00;99.90
20422;DHT22;10370;53.102;18.034;2022-07-19T00:15:57;18.00;99.90
20422;DHT22;10370;53.102;18.034;2022-07-19T00:21:18;18.00;99.90
20422;DHT22;10370;53.102;18.034;2022-07-19T00:26:39;18.00;99.90
20422;DHT22;10370;53.102;18.034;2022-07-19T00:32:00;17.90;99.90
20422;DHT22;10370;53.102;18.034;2022-07-19T00:37:21;17.90;99.90
20422;DHT22;10370;53.102;18.034;2022-07-19T00:42:42;17.80;99.90
20422;DHT22;10370;53.102;18.034;2022-07-19T00:48:04;17.80;99.90
20422;DHT22;10370;53.102;18.034;2022-07-19T00:53:26;17.70;99.90
20422;DHT22;10370;53.102;18.034;2022-07-19T00:58:48;17.70;99.90
20422;DHT22;10370;53.102;18.034;2022-07-19T01:04:11;17.70;99.90
20422;DHT22;10370;53.102;18.034;2022-07-19T01:09:35;17.80;99.90
20422;DHT22;10370;53.102;18.034;2022-07-19T01:14:57;17.80;99.90
20422;DHT22;10370;53.102;18.034;2022-07-19T01:20:23;17.80;99.90
20422;DHT22;10370;53.102;18.034;2022-07-19T01:25:49;17.70;99.90
20422;DHT22;10370;53.102;18.034;2022-07-19T01:31:10;17.70;99.90
20422;DHT22;10370;53.102;18.034;2022-07-19T01:36:31;17.70;99.90
20422;DHT22;10370;53.102;18.034;2022-07-19T01:41:52;17.70;99.90
20422;DHT22;10370;53.102;18.034;2022-07-19T01:47:17;17.60;99.90
20422;DHT22;10370;53.102;18.034;2022-07-19T01:52:38;17.60;99.90
20422;DHT22;10370;53.102;18.034;2022-07-19T01:58:01;17.60;99.90
20422;DHT22;10370;53.102;18.034;2022-07-19T02:03:22;17.50;99.90
20422;DHT22;10370;53.102;18.034;2022-07-19T02:08:43;17.50;99.90
20422;DHT22;10370;53.102;18.034;2022-07-19T02:14:07;17.50;99.90
20422;DHT22;10370;53.102;18.034;2022-07-19T02:19:28;17.50;99.90
20422;DHT22;10370;53.102;18.034;2022-07-19T02:24:49;17.40;99.90
20422;DHT22;10370;53.102;18.034;2022-07-19T02:30:11;17.40;99.90
20422;DHT22;10370;53.102;18.034;2022-07-19T02:35:32;17.40;99.90
20422;DHT22;10370;53.102;18.034;2022-07-19T02:40:53;17.30;99.90
20422;DHT22;10370;53.102;18.034;2022-07-19T02:46:14;17.30;99.90
20422;DHT22;10370;53.102;18.034;2022-07-19T02:56:56;17.30;99.90
20422;DHT22;10370;53.102;18.034;2022-07-19T03:02:17;17.30;99.90
20422;DHT22;10370;53.102;18.034;2022-07-19T03:07:39;17.30;99.90
20422;DHT22;10370;53.102;18.034;2022-07-19T03:13:00;17.20;99.90
20422;DHT22;10370;53.102;18.034;2022-07-19T03:18:21;17.20;99.90
20422;DHT22;10370;53.102;18.034;2022-07-19T03:23:42;17.20;99.90
20422;DHT22;10370;53.102;18.034;2022-07-19T03:29:03;17.20;99.90
20422;DHT22;10370;53.102;18.034;2022-07-19T03:34:25;17.20;99.90
20422;DHT22;10370;53.102;18.034;2022-07-19T03:39:46;17.20;99.90
20422;DHT22;10370;53.102;18.034;2022-07-19T03:45:08;17.20;99.90
20422;DHT22;10370;53.102;18.034;2022-07-19T03:50:29;17.20;99.90
20422;DHT22;10370;53.102;18.034;2022-07-19T03:55:50;17.20;99.90
20422;DHT22;10370;53.102;18.034;2022-07-19T04:01:11;17.30;99.90
20422;DHT22;10370;53.102;18.034;2022-07-19T04:06:32;17.40;99.90
20422;DHT22;10370;53.102;18.034;2022-07-19T04:11:53;17.40;99.90
20422;DHT22;10370;53.102;18.034;2022-07-19T04:17:15;17.50;99.90
20422;DHT22;10370;53.102;18.034;2022-07-19T04:22:35;17.60;99.90
20422;DHT22;10370;53.102;18.034;2022-07-19T04:27:56;17.80;99.90
20422;DHT22;10370;53.102;18.034;2022-07-19T04:33:18;18.00;99.90
20422;DHT22;10370;53.102;18.034;2022-07-19T04:38:39;18.20;99.90
20422;DHT22;10370;53.102;18.034;2022-07-19T04:44:00;18.60;99.90
20422;DHT22;10370;53.102;18.034;2022-07-19T04:49:21;19.10;99.90
20422;DHT22;10370;53.102;18.034;2022-07-19T04:54:42;20.00;99.90
20422;DHT22;10370;53.102;18.034;2022-07-19T05:00:08;21.20;99.90
20422;DHT22;10370;53.102;18.034;2022-07-19T05:05:30;21.20;99.90
20422;DHT22;10370;53.102;18.034;2022-07-19T05:10:51;21.00;99.90
20422;DHT22;10370;53.102;18.034;2022-07-19T05:16:12;21.00;99.90
20422;DHT22;10370;53.102;18.034;2022-07-19T05:21:33;21.30;99.90
20422;DHT22;10370;53.102;18.034;2022-07-19T05:26:54;21.60;99.90
20422;DHT22;10370;53.102;18.034;2022-07-19T05:32:16;21.90;99.90
20422;DHT22;10370;53.102;18.034;2022-07-19T05:37:37;22.10;99.90
20422;DHT22;10370;53.102;18.034;2022-07-19T05:42:58;22.10;99.90
20422;DHT22;10370;53.102;18.034;2022-07-19T05:48:19;22.30;99.90
20422;DHT22;10370;53.102;18.034;2022-07-19T05:53:41;22.40;99.90
20422;DHT22;10370;53.102;18.034;2022-07-19T05:59:02;23.10;99.90
20422;DHT22;10370;53.102;18.034;2022-07-19T06:04:23;23.50;99.90
20422;DHT22;10370;53.102;18.034;2022-07-19T06:09:44;24.60;99.90
20422;DHT22;10370;53.102;18.034;2022-07-19T06:15:09;24.80;99.90
20422;DHT22;10370;53.102;18.034;2022-07-19T06:20:29;27.20;99.90
20422;DHT22;10370;53.102;18.034;2022-07-19T06:25:50;27.70;99.90
20422;DHT22;10370;53.102;18.034;2022-07-19T06:31:13;26.30;99.90
20422;DHT22;10370;53.102;18.034;2022-07-19T06:36:34;25.00;99.90
20422;DHT22;10370;53.102;18.034;2022-07-19T06:41:56;24.10;99.90
20422;DHT22;10370;53.102;18.034;2022-07-19T06:47:17;23.90;99.90
20422;DHT22;10370;53.102;18.034;2022-07-19T06:52:38;23.60;99.90
20422;DHT22;10370;53.102;18.034;2022-07-19T06:57:59;23.50;99.90
20422;DHT22;10370;53.102;18.034;2022-07-19T07:03:20;23.50;99.90
20422;DHT22;10370;53.102;18.034;2022-07-19T07:08:41;23.50;99.90
20422;DHT22;10370;53.102;18.034;2022-07-19T07:14:02;23.50;99.90
20422;DHT22;10370;53.102;18.034;2022-07-19T07:19:23;23.50;99.90
20422;DHT22;10370;53.102;18.034;2022-07-19T07:24:44;23.60;99.90
20422;DHT22;10370;53.102;18.034;2022-07-19T07:30:06;23.70;99.90
20422;DHT22;10370;53.102;18.034;2022-07-19T07:35:27;23.70;99.90
20422;DHT22;10370;53.102;18.034;2022-07-19T07:40:48;23.80;99.90
20422;DHT22;10370;53.102;18.034;2022-07-19T07:46:11;23.90;99.90
20422;DHT22;10370;53.102;18.034;2022-07-19T07:51:32;24.10;99.90
20422;DHT22;10370;53.102;18.034;2022-07-19T07:57:11;24.30;99.90
20422;DHT22;10370;53.102;18.034;2022-07-19T08:02:41;24.30;99.90
20422;DHT22;10370;53.102;18.034;2022-07-19T08:08:02;24.30;99.90
20422;DHT22;10370;53.102;18.034;2022-07-19T08:13:24;24.60;99.90
20422;DHT22;10370;53.102;18.034;2022-07-19T08:18:45;24.60;99.90
20422;DHT22;10370;53.102;18.034;2022-07-19T08:24:06;24.80;99.90
20422;DHT22;10370;53.102;18.034;2022-07-19T08:29:32;25.10;99.90
20422;DHT22;10370;53.102;18.034;2022-07-19T08:34:53;25.10;99.90
20422;DHT22;10370;53.102;18.034;2022-07-19T08:40:15;25.10;99.90
20422;DHT22;10370;53.102;18.034;2022-07-19T08:45:36;25.20;99.90
20422;DHT22;10370;53.102;18.034;2022-07-19T13:49:49;29.20;75.50
20422;DHT22;10370;53.102;18.034;2022-07-19T13:55:10;29.40;74.50
20422;DHT22;10370;53.102;18.034;2022-07-19T14:00:31;29.50;73.00
20422;DHT22;10370;53.102;18.034;2022-07-19T14:05:52;29.70;73.30
20422;DHT22;10370;53.102;18.034;2022-07-19T14:11:14;29.50;72.40
20422;DHT22;10370;53.102;18.034;2022-07-19T14:16:37;29.50;73.10
20422;DHT22;10370;53.102;18.034;2022-07-19T14:21:58;29.60;72.30
20422;DHT22;10370;53.102;18.034;2022-07-19T14:27:19;29.70;71.60
20422;DHT22;10370;53.102;18.034;2022-07-19T14:32:40;29.60;73.50
20422;DHT22;10370;53.102;18.034;2022-07-19T14:38:01;29.80;73.60
20422;DHT22;10370;53.102;18.034;2022-07-19T14:43:22;29.80;71.90
20422;DHT22;10370;53.102;18.034;2022-07-19T14:48:43;29.90;72.70
20422;DHT22;10370;53.102;18.034;2022-07-19T14:54:04;29.90;72.00
20422;DHT22;10370;53.102;18.034;2022-07-19T14:59:32;29.80;71.40
20422;DHT22;10370;53.102;18.034;2022-07-19T15:04:53;29.70;70.60
20422;DHT22;10370;53.102;18.034;2022-07-19T15:10:17;29.80;71.80
20422;DHT22;10370;53.102;18.034;2022-07-19T15:15:38;29.80;72.30
20422;DHT22;10370;53.102;18.034;2022-07-19T15:20:59;29.90;71.30
20422;DHT22;10370;53.102;18.034;2022-07-19T15:26:20;29.90;69.70
20422;DHT22;10370;53.102;18.034;2022-07-19T15:31:41;29.80;70.90
20422;DHT22;10370;53.102;18.034;2022-07-19T15:37:02;29.80;68.70
20422;DHT22;10370;53.102;18.034;2022-07-19T15:42:22;29.80;70.80
20422;DHT22;10370;53.102;18.034;2022-07-19T15:47:44;29.70;70.80
20422;DHT22;10370;53.102;18.034;2022-07-19T15:53:07;29.50;71.60
20422;DHT22;10370;53.102;18.034;2022-07-19T15:58:29;29.50;71.20
20422;DHT22;10370;53.102;18.034;2022-07-19T16:03:50;29.50;71.40
20422;DHT22;10370;53.102;18.034;2022-07-19T16:09:11;29.50;72.10
20422;DHT22;10370;53.102;18.034;2022-07-19T16:14:33;29.40;71.50
20422;DHT22;10370;53.102;18.034;2022-07-19T16:19:54;29.30;72.70
20422;DHT22;10370;53.102;18.034;2022-07-19T16:25:14;29.20;72.00
20422;DHT22;10370;53.102;18.034;2022-07-19T16:30:36;29.30;73.80
20422;DHT22;10370;53.102;18.034;2022-07-19T16:35:58;29.30;71.60
20422;DHT22;10370;53.102;18.034;2022-07-19T16:41:18;29.20;71.40
20422;DHT22;10370;53.102;18.034;2022-07-19T16:46:40;29.20;71.00
20422;DHT22;10370;53.102;18.034;2022-07-19T16:52:01;29.10;69.30
20422;DHT22;10370;53.102;18.034;2022-07-19T16:57:22;29.00;71.10
20422;DHT22;10370;53.102;18.034;2022-07-19T17:02:43;29.00;72.30
20422;DHT22;10370;53.102;18.034;2022-07-19T17:08:04;29.00;71.20
20422;DHT22;10370;53.102;18.034;2022-07-19T17:13:26;28.80;72.90
20422;DHT22;10370;53.102;18.034;2022-07-19T17:18:47;28.70;73.50
20422;DHT22;10370;53.102;18.034;2022-07-19T17:24:08;28.70;73.50
20422;DHT22;10370;53.102;18.034;2022-07-19T17:29:29;28.60;74.10
20422;DHT22;10370;53.102;18.034;2022-07-19T17:34:50;28.50;74.60
20422;DHT22;10370;53.102;18.034;2022-07-19T17:40:12;28.40;74.40
20422;DHT22;10370;53.102;18.034;2022-07-19T17:45:33;28.30;76.30
20422;DHT22;10370;53.102;18.034;2022-07-19T17:50:54;28.10;76.40
20422;DHT22;10370;53.102;18.034;2022-07-19T17:56:15;28.00;76.20
20422;DHT22;10370;53.102;18.034;2022-07-19T18:01:36;27.90;77.30
20422;DHT22;10370;53.102;18.034;2022-07-19T18:06:58;27.70;78.00
20422;DHT22;10370;53.102;18.034;2022-07-19T18:12:19;27.60;78.70
20422;DHT22;10370;53.102;18.034;2022-07-19T18:17:40;27.40;79.20
20422;DHT22;10370;53.102;18.034;2022-07-19T18:23:02;27.30;79.80
20422;DHT22;10370;53.102;18.034;2022-07-19T18:28:23;27.20;80.70
20422;DHT22;10370;53.102;18.034;2022-07-19T18:33:44;27.10;81.20
20422;DHT22;10370;53.102;18.034;2022-07-19T18:39:04;26.90;83.00
20422;DHT22;10370;53.102;18.034;2022-07-19T18:44:25;26.70;84.00
20422;DHT22;10370;53.102;18.034;2022-07-19T18:49:51;26.50;84.50
20422;DHT22;10370;53.102;18.034;2022-07-19T18:55:11;26.20;85.70
20422;DHT22;10370;53.102;18.034;2022-07-19T19:00:33;26.10;85.70
20422;DHT22;10370;53.102;18.034;2022-07-19T19:05:54;25.90;86.30
20422;DHT22;10370;53.102;18.034;2022-07-19T19:11:15;25.70;87.60
20422;DHT22;10370;53.102;18.034;2022-07-19T19:16:36;25.40;90.30
20422;DHT22;10370;53.102;18.034;2022-07-19T19:21:57;25.30;88.90
20422;DHT22;10370;53.102;18.034;2022-07-19T19:27:18;25.20;88.90
20422;DHT22;10370;53.102;18.034;2022-07-19T19:32:47;25.10;89.30
20422;DHT22;10370;53.102;18.034;2022-07-19T19:38:12;25.00;89.90
20422;DHT22;10370;53.102;18.034;2022-07-19T19:43:33;24.80;90.40
20422;DHT22;10370;53.102;18.034;2022-07-19T19:48:54;24.60;90.80
20422;DHT22;10370;53.102;18.034;2022-07-19T19:54:15;24.20;93.70
20422;DHT22;10370;53.102;18.034;2022-07-19T19:59:37;23.70;96.80
20422;DHT22;10370;53.102;18.034;2022-07-19T20:04:57;23.30;99.90
20422;DHT22;10370;53.102;18.034;2022-07-19T20:10:19;22.90;99.90
20422;DHT22;10370;53.102;18.034;2022-07-19T20:15:40;22.40;99.90
20422;DHT22;10370;53.102;18.034;2022-07-19T20:21:05;22.10;99.90
20422;DHT22;10370;53.102;18.034;2022-07-19T20:26:29;21.90;99.90
20422;DHT22;10370;53.102;18.034;2022-07-19T20:31:50;21.80;99.90
20422;DHT22;10370;53.102;18.034;2022-07-19T20:37:11;21.70;99.90
20422;DHT22;10370;53.102;18.034;2022-07-19T20:42:32;21.60;99.90
20422;DHT22;10370;53.102;18.034;2022-07-19T20:47:53;21.60;99.90
20422;DHT22;10370;53.102;18.034;2022-07-19T20:53:13;21.50;99.90
20422;DHT22;10370;53.102;18.034;2022-07-19T20:58:35;21.40;99.90
20422;DHT22;10370;53.102;18.034;2022-07-19T21:03:56;21.20;99.90
20422;DHT22;10370;53.102;18.034;2022-07-19T21:09:17;21.20;99.90
20422;DHT22;10370;53.102;18.034;2022-07-19T21:14:38;21.20;99.90
20422;DHT22;10370;53.102;18.034;2022-07-19T21:19:59;21.20;99.90
20422;DHT22;10370;53.102;18.034;2022-07-19T21:25:21;21.20;99.90
20422;DHT22;10370;53.102;18.034;2022-07-19T21:30:42;21.00;99.90
20422;DHT22;10370;53.102;18.034;2022-07-19T21:36:04;20.80;99.90
20422;DHT22;10370;53.102;18.034;2022-07-19T21:41:25;20.80;99.90
20422;DHT22;10370;53.102;18.034;2022-07-19T21:46:46;20.60;99.90
20422;DHT22;10370;53.102;18.034;2022-07-19T21:52:11;20.30;99.90
20422;DHT22;10370;53.102;18.034;2022-07-19T21:57:34;20.00;99.90
20422;DHT22;10370;53.102;18.034;2022-07-19T22:02:55;19.60;99.90
20422;DHT22;10370;53.102;18.034;2022-07-19T22:08:18;19.50;99.90
20422;DHT22;10370;53.102;18.034;2022-07-19T22:13:39;19.40;99.90
20422;DHT22;10370;53.102;18.034;2022-07-19T22:19:01;19.20;99.90
20422;DHT22;10370;53.102;18.034;2022-07-19T22:24:22;19.20;99.90
20422;DHT22;10370;53.102;18.034;2022-07-19T22:29:43;19.20;99.90
20422;DHT22;10370;53.102;18.034;2022-07-19T22:35:04;19.20;99.90
20422;DHT22;10370;53.102;18.034;2022-07-19T22:40:26;19.20;99.90
20422;DHT22;10370;53.102;18.034;2022-07-19T22:45:48;19.20;99.90
20422;DHT22;10370;53.102;18.034;2022-07-19T22:51:09;19.20;99.90
20422;DHT22;10370;53.102;18.034;2022-07-19T22:56:30;19.30;99.90
20422;DHT22;10370;53.102;18.034;2022-07-19T23:01:51;19.40;99.90
20422;DHT22;10370;53.102;18.034;2022-07-19T23:07:15;19.40;99.90
20422;DHT22;10370;53.102;18.034;2022-07-19T23:12:36;19.10;99.90
20422;DHT22;10370;53.102;18.034;2022-07-19T23:17:57;18.90;99.90
20422;DHT22;10370;53.102;18.034;2022-07-19T23:23:18;18.70;99.90
20422;DHT22;10370;53.102;18.034;2022-07-19T23:28:39;18.70;99.90
20422;DHT22;10370;53.102;18.034;2022-07-19T23:34:00;18.90;99.90
20422;DHT22;10370;53.102;18.034;2022-07-19T23:39:21;19.10;99.90
20422;DHT22;10370;53.102;18.034;2022-07-19T23:44:42;19.00;99.90
20422;DHT22;10370;53.102;18.034;2022-07-19T23:50:05;19.00;99.90
20422;DHT22;10370;53.102;18.034;2022-07-19T23:55:26;18.70;99.90
